ABW8891 UHMM-UHMA
Flight info
| Callsign | ABW8891 |
|---|---|
| Flight time | 2h 0m |
| Altitude | 37000 |
| Route | UHMM MEBAR B216 DANUB UHMA |
| Aircraft | B77L/H-SDE2E3FGHIJ5LORVWXY/LB1D1 |
Departure
| Time | 2026-05-06 15:06 |
|---|---|
| Airport | Sokol Airport (UHMM) |
Arrival
| Time | 2026-05-06 17:07 |
|---|---|
| Airport | Ugolny Yuri Ryktheu Airport (UHMA) |
| Time | Latitude | Longitude | Altitude | Speed | Heading |
|---|---|---|---|---|---|
| 2026-05-06 14:31 | 59.91328 | 150.73469 | 599 ft | 0 kts | 183° |
| 2026-05-06 14:59 | 59.91319 | 150.73469 | 598 ft | 6 kts | 183° |
| 2026-05-06 14:59 | 59.91250 | 150.73351 | 595 ft | 20 kts | 240° |
| 2026-05-06 14:59 | 59.91203 | 150.73227 | 595 ft | 0 kts | 231° |
| 2026-05-06 15:00 | 59.91191 | 150.73196 | 594 ft | 8 kts | 231° |
| 2026-05-06 15:00 | 59.91131 | 150.73048 | 593 ft | 18 kts | 231° |
| 2026-05-06 15:00 | 59.91077 | 150.72771 | 593 ft | 25 kts | 272° |
| 2026-05-06 15:01 | 59.91086 | 150.72397 | 596 ft | 27 kts | 273° |
| 2026-05-06 15:01 | 59.91096 | 150.72003 | 593 ft | 29 kts | 274° |
| 2026-05-06 15:01 | 59.91108 | 150.71593 | 590 ft | 31 kts | 274° |
| 2026-05-06 15:01 | 59.91120 | 150.71149 | 587 ft | 33 kts | 273° |
| 2026-05-06 15:02 | 59.91133 | 150.70670 | 579 ft | 36 kts | 273° |
| 2026-05-06 15:02 | 59.91146 | 150.70157 | 573 ft | 38 kts | 273° |
| 2026-05-06 15:02 | 59.91160 | 150.69621 | 570 ft | 38 kts | 273° |
| 2026-05-06 15:02 | 59.91169 | 150.69296 | 566 ft | 16 kts | 273° |
| 2026-05-06 15:03 | 59.91172 | 150.69197 | 566 ft | 6 kts | 282° |
| 2026-05-06 15:03 | 59.91209 | 150.69115 | 566 ft | 9 kts | 313° |
| 2026-05-06 15:03 | 59.91208 | 150.69002 | 566 ft | 3 kts | 211° |
| 2026-05-06 15:03 | 59.91177 | 150.68999 | 566 ft | 5 kts | 160° |
| 2026-05-06 15:04 | 59.91163 | 150.69076 | 566 ft | 7 kts | 80° |
| 2026-05-06 15:04 | 59.91171 | 150.69197 | 566 ft | 9 kts | 91° |
| 2026-05-06 15:04 | 59.91170 | 150.69264 | 566 ft | 0 kts | 94° |
| 2026-05-06 15:05 | 59.91169 | 150.69292 | 566 ft | 8 kts | 94° |
| 2026-05-06 15:06 | 59.91160 | 150.69659 | 570 ft | 60 kts | 93° |
| 2026-05-06 15:06 | 59.91123 | 150.71042 | 586 ft | 135 kts | 94° |
| 2026-05-06 15:06 | 59.91064 | 150.73091 | 1070 ft | 155 kts | 92° |
| 2026-05-06 15:06 | 59.91032 | 150.75183 | 1883 ft | 162 kts | 90° |
| 2026-05-06 15:07 | 59.91019 | 150.77359 | 2784 ft | 164 kts | 90° |
| 2026-05-06 15:07 | 59.90990 | 150.79665 | 3527 ft | 177 kts | 90° |
| 2026-05-06 15:07 | 59.90964 | 150.82010 | 4229 ft | 173 kts | 89° |
| 2026-05-06 15:07 | 59.90945 | 150.84186 | 4551 ft | 180 kts | 90° |
| 2026-05-06 15:08 | 59.90881 | 150.86655 | 4751 ft | 196 kts | 91° |
| 2026-05-06 15:08 | 59.90796 | 150.89414 | 4950 ft | 215 kts | 91° |
| 2026-05-06 15:08 | 59.90705 | 150.92300 | 5231 ft | 231 kts | 92° |
| 2026-05-06 15:08 | 59.90605 | 150.95471 | 5558 ft | 244 kts | 92° |
| 2026-05-06 15:09 | 59.90493 | 150.98970 | 5826 ft | 259 kts | 92° |
| 2026-05-06 15:09 | 59.90379 | 151.02470 | 6224 ft | 267 kts | 91° |
| 2026-05-06 15:09 | 59.90271 | 151.05736 | 6717 ft | 269 kts | 92° |
| 2026-05-06 15:09 | 59.90145 | 151.09540 | 7300 ft | 270 kts | 91° |
| 2026-05-06 15:10 | 59.90027 | 151.13034 | 7767 ft | 273 kts | 92° |
| 2026-05-06 15:10 | 59.89909 | 151.16539 | 8196 ft | 277 kts | 92° |
| 2026-05-06 15:10 | 59.89788 | 151.20099 | 8620 ft | 281 kts | 92° |
| 2026-05-06 15:10 | 59.89662 | 151.23746 | 9112 ft | 282 kts | 92° |
| 2026-05-06 15:11 | 59.89534 | 151.27437 | 9492 ft | 288 kts | 92° |
| 2026-05-06 15:11 | 59.89401 | 151.31235 | 9936 ft | 291 kts | 92° |
| 2026-05-06 15:11 | 59.89262 | 151.35190 | 10240 ft | 300 kts | 92° |
| 2026-05-06 15:11 | 59.89164 | 151.38992 | 10313 ft | 313 kts | 86° |
| 2026-05-06 15:12 | 59.89519 | 151.43361 | 10349 ft | 327 kts | 71° |
| 2026-05-06 15:12 | 59.90045 | 151.45976 | 10354 ft | 335 kts | 61° |
| 2026-05-06 15:12 | 59.92041 | 151.51036 | 10352 ft | 349 kts | 38° |
| 2026-05-06 15:12 | 59.93953 | 151.53502 | 10352 ft | 356 kts | 25° |
| 2026-05-06 15:13 | 59.96227 | 151.55718 | 10548 ft | 360 kts | 23° |
| 2026-05-06 15:13 | 59.98505 | 151.57884 | 10846 ft | 362 kts | 23° |
| 2026-05-06 15:13 | 60.00750 | 151.60020 | 11163 ft | 363 kts | 23° |
| 2026-05-06 15:13 | 60.03042 | 151.62204 | 11464 ft | 366 kts | 23° |
| 2026-05-06 15:14 | 60.05304 | 151.64362 | 11767 ft | 369 kts | 23° |
| 2026-05-06 15:14 | 60.07645 | 151.66599 | 12101 ft | 372 kts | 24° |
| 2026-05-06 15:14 | 60.09862 | 151.68721 | 12458 ft | 374 kts | 24° |
| 2026-05-06 15:14 | 60.12163 | 151.70927 | 12857 ft | 376 kts | 24° |
| 2026-05-06 15:15 | 60.14476 | 151.73148 | 13278 ft | 379 kts | 24° |
| 2026-05-06 15:15 | 60.16866 | 151.75446 | 13754 ft | 381 kts | 24° |
| 2026-05-06 15:15 | 60.19257 | 151.77750 | 14252 ft | 384 kts | 24° |
| 2026-05-06 15:15 | 60.21676 | 151.80093 | 14774 ft | 387 kts | 25° |
| 2026-05-06 15:16 | 60.23959 | 151.82906 | 15300 ft | 392 kts | 34° |
| 2026-05-06 15:16 | 60.26015 | 151.86508 | 15817 ft | 397 kts | 44° |
| 2026-05-06 15:16 | 60.27781 | 151.90881 | 16347 ft | 402 kts | 54° |
| 2026-05-06 15:16 | 60.29257 | 151.95670 | 16889 ft | 405 kts | 58° |
| 2026-05-06 15:17 | 60.30707 | 152.00549 | 17425 ft | 408 kts | 58° |
| 2026-05-06 15:17 | 60.32159 | 152.05438 | 17941 ft | 411 kts | 57° |
| 2026-05-06 15:17 | 60.33637 | 152.10403 | 18457 ft | 415 kts | 57° |
| 2026-05-06 15:17 | 60.35120 | 152.15393 | 18973 ft | 418 kts | 57° |
| 2026-05-06 15:18 | 60.36633 | 152.20482 | 19488 ft | 422 kts | 57° |
| 2026-05-06 15:18 | 60.38144 | 152.25566 | 19994 ft | 425 kts | 57° |
| 2026-05-06 15:18 | 60.39675 | 152.30731 | 20508 ft | 428 kts | 57° |
| 2026-05-06 15:18 | 60.41201 | 152.35887 | 21004 ft | 432 kts | 57° |
| 2026-05-06 15:19 | 60.42733 | 152.41075 | 21506 ft | 435 kts | 57° |
| 2026-05-06 15:19 | 60.44288 | 152.46349 | 21999 ft | 438 kts | 57° |
| 2026-05-06 15:19 | 60.45771 | 152.51388 | 22466 ft | 442 kts | 57° |
| 2026-05-06 15:19 | 60.47297 | 152.56589 | 22941 ft | 445 kts | 57° |
| 2026-05-06 15:20 | 60.48878 | 152.61984 | 23426 ft | 449 kts | 57° |
| 2026-05-06 15:20 | 60.50464 | 152.67413 | 23965 ft | 451 kts | 58° |
| 2026-05-06 15:20 | 60.52075 | 152.72937 | 24485 ft | 453 kts | 58° |
| 2026-05-06 15:20 | 60.53671 | 152.78426 | 24945 ft | 457 kts | 58° |
| 2026-05-06 15:21 | 60.55303 | 152.84049 | 25406 ft | 461 kts | 58° |
| 2026-05-06 15:21 | 60.56929 | 152.89668 | 25885 ft | 464 kts | 58° |
| 2026-05-06 15:21 | 60.58555 | 152.95297 | 26352 ft | 468 kts | 58° |
| 2026-05-06 15:21 | 60.60222 | 153.01083 | 26814 ft | 471 kts | 58° |
| 2026-05-06 15:22 | 60.61880 | 153.06854 | 27246 ft | 475 kts | 58° |
| 2026-05-06 15:22 | 60.63549 | 153.12676 | 27644 ft | 480 kts | 58° |
| 2026-05-06 15:22 | 60.65232 | 153.18483 | 28042 ft | 484 kts | 58° |
| 2026-05-06 15:22 | 60.66964 | 153.24452 | 28471 ft | 488 kts | 58° |
| 2026-05-06 15:23 | 60.68672 | 153.30356 | 28925 ft | 490 kts | 58° |
| 2026-05-06 15:23 | 60.70406 | 153.36369 | 29495 ft | 490 kts | 58° |
| 2026-05-06 15:23 | 60.72140 | 153.42400 | 30156 ft | 488 kts | 58° |
| 2026-05-06 15:23 | 60.73830 | 153.48290 | 30788 ft | 486 kts | 58° |
| 2026-05-06 15:24 | 60.75544 | 153.54283 | 31384 ft | 485 kts | 58° |
| 2026-05-06 15:24 | 60.77246 | 153.60251 | 31941 ft | 485 kts | 58° |
| 2026-05-06 15:24 | 60.78943 | 153.66213 | 32493 ft | 485 kts | 59° |
| 2026-05-06 15:24 | 60.80621 | 153.72127 | 33050 ft | 484 kts | 59° |
| 2026-05-06 15:25 | 60.82301 | 153.78065 | 33613 ft | 483 kts | 59° |
| 2026-05-06 15:25 | 60.83975 | 153.83993 | 34145 ft | 483 kts | 59° |
| 2026-05-06 15:25 | 60.85657 | 153.89969 | 34673 ft | 482 kts | 59° |
| 2026-05-06 15:25 | 60.87318 | 153.95888 | 35208 ft | 481 kts | 59° |
| 2026-05-06 15:26 | 60.88996 | 154.01878 | 35732 ft | 479 kts | 59° |
| 2026-05-06 15:26 | 60.90631 | 154.07733 | 36189 ft | 478 kts | 59° |
| 2026-05-06 15:26 | 60.92292 | 154.13695 | 36596 ft | 478 kts | 59° |
| 2026-05-06 15:26 | 60.93933 | 154.19601 | 36762 ft | 481 kts | 59° |
| 2026-05-06 15:27 | 60.95607 | 154.25641 | 36768 ft | 481 kts | 59° |
| 2026-05-06 15:27 | 60.98880 | 154.37500 | 36770 ft | 478 kts | 59° |
| 2026-05-06 15:28 | 61.02163 | 154.49457 | 36771 ft | 479 kts | 59° |
| 2026-05-06 15:28 | 61.05436 | 154.61438 | 36772 ft | 479 kts | 59° |
| 2026-05-06 15:29 | 61.08682 | 154.73386 | 36792 ft | 479 kts | 59° |
| 2026-05-06 15:29 | 61.11945 | 154.85461 | 36789 ft | 479 kts | 60° |
| 2026-05-06 15:30 | 61.15178 | 154.97487 | 36792 ft | 479 kts | 60° |
| 2026-05-06 15:30 | 61.18402 | 155.09547 | 36792 ft | 479 kts | 60° |
| 2026-05-06 15:31 | 61.21613 | 155.21622 | 36792 ft | 478 kts | 60° |
| 2026-05-06 15:31 | 61.24815 | 155.33727 | 36792 ft | 478 kts | 60° |
| 2026-05-06 15:32 | 61.29577 | 155.51855 | 36793 ft | 478 kts | 60° |
| 2026-05-06 15:32 | 61.32764 | 155.64072 | 36793 ft | 478 kts | 60° |
| 2026-05-06 15:33 | 61.35922 | 155.76241 | 36791 ft | 478 kts | 61° |
| 2026-05-06 15:33 | 61.39059 | 155.88396 | 36791 ft | 478 kts | 61° |
| 2026-05-06 15:34 | 61.42208 | 156.00661 | 36792 ft | 478 kts | 61° |
| 2026-05-06 15:34 | 61.45344 | 156.12949 | 36792 ft | 478 kts | 61° |
| 2026-05-06 15:35 | 61.48460 | 156.25223 | 36792 ft | 478 kts | 61° |
| 2026-05-06 15:35 | 61.51560 | 156.37501 | 36792 ft | 478 kts | 61° |
| 2026-05-06 15:36 | 61.54663 | 156.49863 | 36793 ft | 478 kts | 61° |
| 2026-05-06 15:36 | 61.57744 | 156.62204 | 36793 ft | 478 kts | 61° |
| 2026-05-06 15:37 | 61.60820 | 156.74594 | 36791 ft | 478 kts | 62° |
| 2026-05-06 15:37 | 61.63873 | 156.86963 | 36791 ft | 478 kts | 62° |
| 2026-05-06 15:38 | 61.66945 | 156.99478 | 36791 ft | 478 kts | 62° |
| 2026-05-06 15:38 | 61.69982 | 157.11923 | 36792 ft | 478 kts | 62° |
| 2026-05-06 15:39 | 61.73003 | 157.24370 | 36792 ft | 477 kts | 62° |
| 2026-05-06 15:39 | 61.76020 | 157.36871 | 36792 ft | 477 kts | 62° |
| 2026-05-06 15:40 | 61.79019 | 157.49373 | 36792 ft | 476 kts | 62° |
| 2026-05-06 15:40 | 61.82001 | 157.61873 | 36793 ft | 477 kts | 62° |
| 2026-05-06 15:41 | 61.84949 | 157.74306 | 36791 ft | 477 kts | 63° |
| 2026-05-06 15:41 | 61.87915 | 157.86882 | 36791 ft | 477 kts | 63° |
| 2026-05-06 15:42 | 61.90861 | 157.99448 | 36791 ft | 477 kts | 63° |
| 2026-05-06 15:42 | 61.93811 | 158.12105 | 36792 ft | 477 kts | 63° |
| 2026-05-06 15:43 | 61.96729 | 158.24696 | 36792 ft | 477 kts | 63° |
| 2026-05-06 15:43 | 61.99650 | 158.37375 | 36792 ft | 477 kts | 63° |
| 2026-05-06 15:44 | 62.02536 | 158.49977 | 36793 ft | 477 kts | 63° |
| 2026-05-06 15:44 | 62.05435 | 158.62711 | 36793 ft | 476 kts | 63° |
| 2026-05-06 15:45 | 62.08311 | 158.75421 | 36791 ft | 477 kts | 64° |
| 2026-05-06 15:45 | 62.11168 | 158.88121 | 36791 ft | 477 kts | 64° |
| 2026-05-06 15:46 | 62.14037 | 159.00951 | 36792 ft | 476 kts | 64° |
| 2026-05-06 15:46 | 62.16868 | 159.13684 | 36792 ft | 477 kts | 64° |
| 2026-05-06 15:47 | 62.19712 | 159.26556 | 36792 ft | 476 kts | 64° |
| 2026-05-06 15:47 | 62.22523 | 159.39359 | 36791 ft | 476 kts | 64° |
| 2026-05-06 15:48 | 62.25325 | 159.52196 | 36763 ft | 476 kts | 64° |
| 2026-05-06 15:48 | 62.28122 | 159.65086 | 36743 ft | 476 kts | 64° |
| 2026-05-06 15:49 | 62.30890 | 159.77925 | 36738 ft | 476 kts | 64° |
| 2026-05-06 15:49 | 62.33572 | 159.90439 | 36729 ft | 476 kts | 64° |
| 2026-05-06 15:50 | 62.36335 | 160.03406 | 36728 ft | 475 kts | 64° |
| 2026-05-06 15:50 | 62.39063 | 160.16293 | 36729 ft | 476 kts | 64° |
| 2026-05-06 15:51 | 62.41798 | 160.29292 | 36729 ft | 476 kts | 64° |
| 2026-05-06 15:51 | 62.44523 | 160.42325 | 36729 ft | 475 kts | 64° |
| 2026-05-06 15:52 | 62.47236 | 160.55386 | 36730 ft | 476 kts | 64° |
| 2026-05-06 15:52 | 62.49923 | 160.68402 | 36728 ft | 476 kts | 65° |
| 2026-05-06 15:53 | 62.52610 | 160.81499 | 36728 ft | 476 kts | 65° |
| 2026-05-06 15:53 | 62.55280 | 160.94597 | 36726 ft | 475 kts | 66° |
| 2026-05-06 15:54 | 62.57951 | 161.07779 | 36734 ft | 476 kts | 66° |
| 2026-05-06 15:54 | 62.60560 | 161.20746 | 36726 ft | 475 kts | 66° |
| 2026-05-06 15:55 | 62.63137 | 161.33632 | 36731 ft | 476 kts | 66° |
| 2026-05-06 15:55 | 62.65740 | 161.46732 | 36725 ft | 476 kts | 66° |
| 2026-05-06 15:56 | 62.68367 | 161.60037 | 36726 ft | 476 kts | 66° |
| 2026-05-06 15:56 | 62.70957 | 161.73241 | 36723 ft | 476 kts | 67° |
| 2026-05-06 15:57 | 62.73540 | 161.86502 | 36729 ft | 475 kts | 67° |
| 2026-05-06 15:57 | 62.76117 | 161.99815 | 36736 ft | 476 kts | 66° |
| 2026-05-06 15:58 | 62.78674 | 162.13113 | 36732 ft | 475 kts | 67° |
| 2026-05-06 15:58 | 62.81223 | 162.26459 | 36728 ft | 475 kts | 67° |
| 2026-05-06 15:59 | 62.83755 | 162.39804 | 36734 ft | 475 kts | 67° |
| 2026-05-06 15:59 | 62.86273 | 162.53162 | 36723 ft | 475 kts | 67° |
| 2026-05-06 16:00 | 62.88763 | 162.66469 | 36731 ft | 477 kts | 68° |
| 2026-05-06 16:00 | 62.91270 | 162.79948 | 36723 ft | 475 kts | 68° |
| 2026-05-06 16:01 | 62.93757 | 162.93419 | 36732 ft | 476 kts | 68° |
| 2026-05-06 16:01 | 62.96218 | 163.06841 | 36727 ft | 477 kts | 68° |
| 2026-05-06 16:02 | 62.98676 | 163.20335 | 36730 ft | 476 kts | 68° |
| 2026-05-06 16:02 | 63.01135 | 163.33929 | 36730 ft | 477 kts | 68° |
| 2026-05-06 16:03 | 63.03567 | 163.47470 | 36733 ft | 477 kts | 68° |
| 2026-05-06 16:03 | 63.06008 | 163.61154 | 36730 ft | 476 kts | 68° |
| 2026-05-06 16:04 | 63.08411 | 163.74724 | 36726 ft | 476 kts | 69° |
| 2026-05-06 16:04 | 63.10799 | 163.88301 | 36728 ft | 477 kts | 69° |
| 2026-05-06 16:05 | 63.13192 | 164.02006 | 36728 ft | 476 kts | 69° |
| 2026-05-06 16:05 | 63.15566 | 164.15701 | 36728 ft | 477 kts | 69° |
| 2026-05-06 16:06 | 63.17926 | 164.29417 | 36731 ft | 477 kts | 69° |
| 2026-05-06 16:06 | 63.20274 | 164.43152 | 36727 ft | 477 kts | 69° |
| 2026-05-06 16:07 | 63.22600 | 164.56867 | 36727 ft | 476 kts | 69° |
| 2026-05-06 16:07 | 63.24907 | 164.70566 | 36729 ft | 476 kts | 70° |
| 2026-05-06 16:08 | 63.27215 | 164.84375 | 36729 ft | 476 kts | 70° |
| 2026-05-06 16:08 | 63.29503 | 164.98158 | 36727 ft | 476 kts | 70° |
| 2026-05-06 16:09 | 63.31781 | 165.11990 | 36728 ft | 477 kts | 70° |
| 2026-05-06 16:09 | 63.34036 | 165.25787 | 36728 ft | 477 kts | 70° |
| 2026-05-06 16:10 | 63.36298 | 165.39734 | 36735 ft | 476 kts | 70° |
| 2026-05-06 16:10 | 63.37403 | 165.46594 | 36840 ft | 475 kts | 70° |
| 2026-05-06 16:10 | 63.38521 | 165.53578 | 36963 ft | 478 kts | 70° |
| 2026-05-06 16:11 | 63.39627 | 165.60513 | 37067 ft | 478 kts | 70° |
| 2026-05-06 16:11 | 63.40733 | 165.67479 | 37119 ft | 477 kts | 71° |
| 2026-05-06 16:11 | 63.42935 | 165.81421 | 37123 ft | 477 kts | 71° |
| 2026-05-06 16:12 | 63.45121 | 165.95378 | 37123 ft | 477 kts | 71° |
| 2026-05-06 16:12 | 63.47309 | 166.09447 | 37124 ft | 477 kts | 71° |
| 2026-05-06 16:13 | 63.49452 | 166.23343 | 37124 ft | 477 kts | 71° |
| 2026-05-06 16:13 | 63.51598 | 166.37364 | 37124 ft | 477 kts | 71° |
| 2026-05-06 16:14 | 63.53741 | 166.51474 | 37124 ft | 476 kts | 71° |
| 2026-05-06 16:14 | 63.55852 | 166.65491 | 37124 ft | 477 kts | 72° |
| 2026-05-06 16:15 | 63.57953 | 166.79553 | 37123 ft | 477 kts | 72° |
| 2026-05-06 16:15 | 63.60038 | 166.93613 | 37123 ft | 476 kts | 72° |
| 2026-05-06 16:16 | 63.62116 | 167.07748 | 37123 ft | 474 kts | 72° |
| 2026-05-06 16:16 | 63.64165 | 167.21797 | 37124 ft | 475 kts | 72° |
| 2026-05-06 16:17 | 63.66202 | 167.35875 | 37124 ft | 475 kts | 72° |
| 2026-05-06 16:17 | 63.68213 | 167.50081 | 37124 ft | 474 kts | 72° |
| 2026-05-06 16:18 | 63.70186 | 167.64241 | 37125 ft | 475 kts | 72° |
| 2026-05-06 16:18 | 63.72144 | 167.78398 | 37124 ft | 474 kts | 73° |
| 2026-05-06 16:19 | 63.74079 | 167.92509 | 37124 ft | 474 kts | 73° |
| 2026-05-06 16:19 | 63.75995 | 168.06595 | 37124 ft | 475 kts | 73° |
| 2026-05-06 16:20 | 63.77887 | 168.20624 | 37124 ft | 474 kts | 73° |
| 2026-05-06 16:20 | 63.79748 | 168.34541 | 37124 ft | 474 kts | 73° |
| 2026-05-06 16:21 | 63.81608 | 168.48566 | 37125 ft | 475 kts | 73° |
| 2026-05-06 16:21 | 63.83458 | 168.62642 | 37125 ft | 474 kts | 73° |
| 2026-05-06 16:22 | 63.85283 | 168.76648 | 37124 ft | 474 kts | 74° |
| 2026-05-06 16:22 | 63.87145 | 168.91064 | 37124 ft | 475 kts | 74° |
| 2026-05-06 16:23 | 63.88978 | 169.05386 | 37124 ft | 474 kts | 74° |
| 2026-05-06 16:23 | 63.90790 | 169.19672 | 37125 ft | 472 kts | 75° |
| 2026-05-06 16:24 | 63.92597 | 169.34050 | 37125 ft | 472 kts | 75° |
| 2026-05-06 16:24 | 63.94381 | 169.48378 | 37125 ft | 472 kts | 75° |
| 2026-05-06 16:25 | 63.96105 | 169.62343 | 37125 ft | 472 kts | 75° |
| 2026-05-06 16:25 | 63.97850 | 169.76621 | 37125 ft | 472 kts | 76° |
| 2026-05-06 16:26 | 63.99591 | 169.90993 | 37125 ft | 472 kts | 76° |
| 2026-05-06 16:26 | 64.01316 | 170.05362 | 37125 ft | 472 kts | 76° |
| 2026-05-06 16:27 | 64.02982 | 170.19380 | 37125 ft | 472 kts | 76° |
| 2026-05-06 16:27 | 64.04655 | 170.33578 | 37125 ft | 472 kts | 76° |
| 2026-05-06 16:28 | 64.06338 | 170.48012 | 37126 ft | 472 kts | 76° |
| 2026-05-06 16:28 | 64.08008 | 170.62460 | 37126 ft | 472 kts | 75° |
| 2026-05-06 16:29 | 64.09667 | 170.76611 | 37126 ft | 471 kts | 76° |
| 2026-05-06 16:29 | 64.11314 | 170.90764 | 37122 ft | 470 kts | 76° |
| 2026-05-06 16:30 | 64.12696 | 171.02740 | 37122 ft | 470 kts | 77° |
| 2026-05-06 16:30 | 64.14574 | 171.19189 | 37122 ft | 469 kts | 77° |
| 2026-05-06 16:31 | 64.16191 | 171.33510 | 37122 ft | 469 kts | 77° |
| 2026-05-06 16:31 | 64.17811 | 171.47992 | 37122 ft | 469 kts | 77° |
| 2026-05-06 16:32 | 64.19411 | 171.62450 | 37122 ft | 469 kts | 77° |
| 2026-05-06 16:32 | 64.21005 | 171.77002 | 37122 ft | 469 kts | 78° |
| 2026-05-06 16:33 | 64.22568 | 171.91414 | 37122 ft | 469 kts | 78° |
| 2026-05-06 16:34 | 64.24870 | 172.12917 | 37122 ft | 469 kts | 78° |
| 2026-05-06 16:34 | 64.26395 | 172.27345 | 37122 ft | 469 kts | 78° |
| 2026-05-06 16:35 | 64.27876 | 172.41499 | 37122 ft | 468 kts | 78° |
| 2026-05-06 16:35 | 64.29390 | 172.56122 | 37123 ft | 468 kts | 78° |
| 2026-05-06 16:36 | 64.30837 | 172.70252 | 36529 ft | 462 kts | 79° |
| 2026-05-06 16:36 | 64.31585 | 172.77609 | 35520 ft | 468 kts | 79° |
| 2026-05-06 16:36 | 64.32319 | 172.84882 | 34588 ft | 472 kts | 79° |
| 2026-05-06 16:36 | 64.33027 | 172.91928 | 33716 ft | 475 kts | 79° |
| 2026-05-06 16:37 | 64.33751 | 172.99170 | 32816 ft | 477 kts | 79° |
| 2026-05-06 16:37 | 64.34438 | 173.06082 | 31940 ft | 478 kts | 79° |
| 2026-05-06 16:37 | 64.35176 | 173.13541 | 31002 ft | 479 kts | 79° |
| 2026-05-06 16:37 | 64.35910 | 173.21005 | 30350 ft | 473 kts | 79° |
| 2026-05-06 16:38 | 64.36629 | 173.28346 | 29845 ft | 464 kts | 79° |
| 2026-05-06 16:38 | 64.37335 | 173.35602 | 29295 ft | 457 kts | 79° |
| 2026-05-06 16:38 | 64.38020 | 173.42671 | 28729 ft | 450 kts | 79° |
| 2026-05-06 16:38 | 64.38689 | 173.49638 | 28164 ft | 444 kts | 79° |
| 2026-05-06 16:39 | 64.39347 | 173.56512 | 27607 ft | 437 kts | 79° |
| 2026-05-06 16:39 | 64.39991 | 173.63281 | 27044 ft | 431 kts | 79° |
| 2026-05-06 16:39 | 64.40626 | 173.69991 | 26487 ft | 424 kts | 79° |
| 2026-05-06 16:39 | 64.41252 | 173.76645 | 25932 ft | 418 kts | 79° |
| 2026-05-06 16:40 | 64.41861 | 173.83148 | 25377 ft | 412 kts | 79° |
| 2026-05-06 16:40 | 64.42457 | 173.89543 | 24832 ft | 406 kts | 79° |
| 2026-05-06 16:40 | 64.43047 | 173.95917 | 24288 ft | 400 kts | 79° |
| 2026-05-06 16:40 | 64.43624 | 174.02164 | 23743 ft | 394 kts | 79° |
| 2026-05-06 16:41 | 64.44178 | 174.08203 | 23217 ft | 388 kts | 78° |
| 2026-05-06 16:41 | 64.44704 | 174.13966 | 22714 ft | 382 kts | 78° |
| 2026-05-06 16:41 | 64.45252 | 174.19997 | 22179 ft | 376 kts | 78° |
| 2026-05-06 16:41 | 64.45785 | 174.25890 | 21658 ft | 370 kts | 78° |
| 2026-05-06 16:42 | 64.46304 | 174.31653 | 21152 ft | 371 kts | 78° |
| 2026-05-06 16:42 | 64.46834 | 174.37573 | 20617 ft | 378 kts | 78° |
| 2026-05-06 16:42 | 64.47368 | 174.43562 | 20072 ft | 375 kts | 78° |
| 2026-05-06 16:42 | 64.47885 | 174.49393 | 19550 ft | 371 kts | 77° |
| 2026-05-06 16:43 | 64.48404 | 174.55272 | 19021 ft | 368 kts | 77° |
| 2026-05-06 16:43 | 64.48911 | 174.61040 | 18497 ft | 366 kts | 77° |
| 2026-05-06 16:43 | 64.49416 | 174.66814 | 17974 ft | 363 kts | 78° |
| 2026-05-06 16:43 | 64.49909 | 174.72479 | 17462 ft | 361 kts | 78° |
| 2026-05-06 16:44 | 64.50403 | 174.78186 | 16942 ft | 359 kts | 78° |
| 2026-05-06 16:44 | 64.50890 | 174.83827 | 16428 ft | 356 kts | 77° |
| 2026-05-06 16:44 | 64.51373 | 174.89468 | 15915 ft | 354 kts | 77° |
| 2026-05-06 16:44 | 64.51849 | 174.95046 | 15404 ft | 352 kts | 77° |
| 2026-05-06 16:45 | 64.52324 | 175.00626 | 14892 ft | 350 kts | 77° |
| 2026-05-06 16:45 | 64.52792 | 175.06166 | 14383 ft | 348 kts | 78° |
| 2026-05-06 16:45 | 64.53251 | 175.11618 | 13879 ft | 347 kts | 78° |
| 2026-05-06 16:45 | 64.53711 | 175.17107 | 13369 ft | 345 kts | 78° |
| 2026-05-06 16:46 | 64.54163 | 175.22539 | 12865 ft | 343 kts | 78° |
| 2026-05-06 16:46 | 64.54609 | 175.27904 | 12365 ft | 341 kts | 78° |
| 2026-05-06 16:46 | 64.55052 | 175.33276 | 11863 ft | 339 kts | 78° |
| 2026-05-06 16:46 | 64.55496 | 175.38667 | 11359 ft | 336 kts | 78° |
| 2026-05-06 16:47 | 64.55929 | 175.43962 | 10863 ft | 333 kts | 78° |
| 2026-05-06 16:47 | 64.56348 | 175.49114 | 10656 ft | 315 kts | 78° |
| 2026-05-06 16:47 | 64.56741 | 175.53973 | 10600 ft | 294 kts | 78° |
| 2026-05-06 16:47 | 64.57104 | 175.58472 | 10512 ft | 278 kts | 78° |
| 2026-05-06 16:48 | 64.57452 | 175.62796 | 10402 ft | 265 kts | 78° |
| 2026-05-06 16:48 | 64.57783 | 175.66937 | 10290 ft | 254 kts | 79° |
| 2026-05-06 16:48 | 64.58103 | 175.70940 | 10185 ft | 252 kts | 79° |
| 2026-05-06 16:48 | 64.58430 | 175.75040 | 10069 ft | 259 kts | 79° |
| 2026-05-06 16:49 | 64.58755 | 175.79150 | 9582 ft | 263 kts | 79° |
| 2026-05-06 16:49 | 64.59088 | 175.83371 | 9221 ft | 262 kts | 79° |
| 2026-05-06 16:49 | 64.59390 | 175.87466 | 9065 ft | 257 kts | 84° |
| 2026-05-06 16:49 | 64.59407 | 175.91684 | 9046 ft | 255 kts | 91° |
| 2026-05-06 16:50 | 64.59319 | 175.95798 | 9055 ft | 261 kts | 92° |
| 2026-05-06 16:50 | 64.59212 | 176.00012 | 9048 ft | 260 kts | 92° |
| 2026-05-06 16:50 | 64.59104 | 176.04178 | 8897 ft | 257 kts | 92° |
| 2026-05-06 16:50 | 64.59032 | 176.06920 | 8618 ft | 259 kts | 92° |
| 2026-05-06 16:51 | 64.58886 | 176.12494 | 8132 ft | 258 kts | 92° |
| 2026-05-06 16:51 | 64.58775 | 176.16623 | 7824 ft | 255 kts | 92° |
| 2026-05-06 16:51 | 64.58664 | 176.20760 | 7475 ft | 254 kts | 93° |
| 2026-05-06 16:51 | 64.58553 | 176.24841 | 7139 ft | 253 kts | 93° |
| 2026-05-06 16:52 | 64.58442 | 176.28883 | 6819 ft | 251 kts | 93° |
| 2026-05-06 16:52 | 64.58329 | 176.32932 | 6449 ft | 252 kts | 92° |
| 2026-05-06 16:52 | 64.58216 | 176.36975 | 6142 ft | 250 kts | 93° |
| 2026-05-06 16:52 | 64.58102 | 176.40996 | 5822 ft | 248 kts | 92° |
| 2026-05-06 16:53 | 64.57987 | 176.44995 | 5513 ft | 246 kts | 93° |
| 2026-05-06 16:53 | 64.57872 | 176.48976 | 5210 ft | 245 kts | 92° |
| 2026-05-06 16:53 | 64.57759 | 176.52841 | 5084 ft | 237 kts | 92° |
| 2026-05-06 16:53 | 64.57649 | 176.56598 | 4869 ft | 233 kts | 93° |
| 2026-05-06 16:54 | 64.57537 | 176.60368 | 4574 ft | 233 kts | 92° |
| 2026-05-06 16:54 | 64.57425 | 176.64127 | 4309 ft | 232 kts | 92° |
| 2026-05-06 16:54 | 64.57310 | 176.67899 | 4059 ft | 231 kts | 94° |
| 2026-05-06 16:54 | 64.57199 | 176.71570 | 3801 ft | 230 kts | 94° |
| 2026-05-06 16:55 | 64.57086 | 176.75256 | 3552 ft | 229 kts | 94° |
| 2026-05-06 16:55 | 64.56971 | 176.78954 | 3268 ft | 229 kts | 93° |
| 2026-05-06 16:55 | 64.56856 | 176.82678 | 3048 ft | 227 kts | 94° |
| 2026-05-06 16:55 | 64.56741 | 176.86298 | 3003 ft | 229 kts | 94° |
| 2026-05-06 16:56 | 64.56625 | 176.89964 | 2997 ft | 227 kts | 94° |
| 2026-05-06 16:56 | 64.56507 | 176.93648 | 2997 ft | 228 kts | 93° |
| 2026-05-06 16:56 | 64.56389 | 176.97319 | 2997 ft | 228 kts | 94° |
| 2026-05-06 16:56 | 64.56270 | 177.01001 | 2996 ft | 227 kts | 94° |
| 2026-05-06 16:57 | 64.56151 | 177.04625 | 2996 ft | 227 kts | 93° |
| 2026-05-06 16:57 | 64.56029 | 177.08334 | 2996 ft | 227 kts | 94° |
| 2026-05-06 16:57 | 64.55909 | 177.11948 | 2996 ft | 227 kts | 93° |
| 2026-05-06 16:57 | 64.55785 | 177.15643 | 2996 ft | 228 kts | 93° |
| 2026-05-06 16:58 | 64.55664 | 177.19263 | 2997 ft | 227 kts | 94° |
| 2026-05-06 16:58 | 64.55539 | 177.22931 | 2997 ft | 227 kts | 94° |
| 2026-05-06 16:58 | 64.55415 | 177.26562 | 2996 ft | 226 kts | 94° |
| 2026-05-06 16:58 | 64.55289 | 177.30219 | 2996 ft | 226 kts | 94° |
| 2026-05-06 16:59 | 64.55163 | 177.33838 | 2997 ft | 227 kts | 94° |
| 2026-05-06 16:59 | 64.55035 | 177.37460 | 2992 ft | 221 kts | 95° |
| 2026-05-06 16:59 | 64.54749 | 177.40871 | 2992 ft | 210 kts | 103° |
| 2026-05-06 16:59 | 64.54391 | 177.44151 | 2977 ft | 205 kts | 103° |
| 2026-05-06 17:00 | 64.54041 | 177.47293 | 2947 ft | 196 kts | 103° |
| 2026-05-06 17:00 | 64.53712 | 177.50241 | 2871 ft | 185 kts | 103° |
| 2026-05-06 17:00 | 64.53403 | 177.53006 | 2751 ft | 170 kts | 103° |
| 2026-05-06 17:00 | 64.53112 | 177.55595 | 2585 ft | 162 kts | 102° |
| 2026-05-06 17:01 | 64.52940 | 177.58272 | 2595 ft | 173 kts | 83° |
| 2026-05-06 17:01 | 64.53329 | 177.60786 | 2583 ft | 168 kts | 52° |
| 2026-05-06 17:01 | 64.54255 | 177.62378 | 2583 ft | 165 kts | 24° |
| 2026-05-06 17:01 | 64.55344 | 177.63181 | 2548 ft | 166 kts | 16° |
| 2026-05-06 17:02 | 64.56445 | 177.63809 | 2409 ft | 159 kts | 15° |
| 2026-05-06 17:02 | 64.57498 | 177.64414 | 2376 ft | 154 kts | 15° |
| 2026-05-06 17:02 | 64.58512 | 177.65013 | 2380 ft | 150 kts | 17° |
| 2026-05-06 17:02 | 64.59508 | 177.65619 | 2378 ft | 144 kts | 17° |
| 2026-05-06 17:03 | 64.60459 | 177.66199 | 2380 ft | 137 kts | 17° |
| 2026-05-06 17:03 | 64.61362 | 177.66746 | 2323 ft | 137 kts | 18° |
| 2026-05-06 17:03 | 64.62276 | 177.67303 | 2148 ft | 133 kts | 18° |
| 2026-05-06 17:03 | 64.63155 | 177.67839 | 1967 ft | 129 kts | 17° |
| 2026-05-06 17:04 | 64.64030 | 177.68372 | 1797 ft | 132 kts | 18° |
| 2026-05-06 17:04 | 64.64941 | 177.68929 | 1614 ft | 133 kts | 18° |
| 2026-05-06 17:04 | 64.65813 | 177.69463 | 1432 ft | 130 kts | 17° |
| 2026-05-06 17:04 | 64.66685 | 177.69994 | 1256 ft | 129 kts | 17° |
| 2026-05-06 17:05 | 64.67541 | 177.70517 | 1078 ft | 129 kts | 17° |
| 2026-05-06 17:05 | 64.68421 | 177.71014 | 930 ft | 129 kts | 15° |
| 2026-05-06 17:05 | 64.69305 | 177.71513 | 700 ft | 130 kts | 17° |
| 2026-05-06 17:05 | 64.70187 | 177.72080 | 544 ft | 131 kts | 18° |
| 2026-05-06 17:06 | 64.71063 | 177.72623 | 366 ft | 130 kts | 17° |
| 2026-05-06 17:06 | 64.71935 | 177.73180 | 198 ft | 128 kts | 18° |
| 2026-05-06 17:06 | 64.72745 | 177.73703 | 150 ft | 108 kts | 14° |
| 2026-05-06 17:06 | 64.73350 | 177.74065 | 156 ft | 71 kts | 15° |
| 2026-05-06 17:07 | 64.73761 | 177.74318 | 161 ft | 57 kts | 15° |
| 2026-05-06 17:07 | 64.74055 | 177.74499 | 167 ft | 16 kts | 14° |
| 2026-05-06 17:07 | 64.74147 | 177.74524 | 169 ft | 12 kts | 357° |
| 2026-05-06 17:07 | 64.74156 | 177.74574 | 169 ft | 6 kts | 164° |
| 2026-05-06 17:08 | 64.74095 | 177.74564 | 169 ft | 12 kts | 197° |
| 2026-05-06 17:08 | 64.73988 | 177.74461 | 166 ft | 20 kts | 195° |
| 2026-05-06 17:08 | 64.73829 | 177.74362 | 163 ft | 27 kts | 194° |
| 2026-05-06 17:08 | 64.73629 | 177.74237 | 160 ft | 32 kts | 195° |
| 2026-05-06 17:09 | 64.73419 | 177.74109 | 156 ft | 19 kts | 195° |
| 2026-05-06 17:09 | 64.73280 | 177.74022 | 155 ft | 22 kts | 194° |
| 2026-05-06 17:09 | 64.73118 | 177.73923 | 152 ft | 25 kts | 195° |
| 2026-05-06 17:09 | 64.72939 | 177.73811 | 152 ft | 27 kts | 195° |
| 2026-05-06 17:10 | 64.72742 | 177.73691 | 150 ft | 30 kts | 194° |
| 2026-05-06 17:10 | 64.72533 | 177.73563 | 150 ft | 31 kts | 195° |
| 2026-05-06 17:10 | 64.72319 | 177.73428 | 150 ft | 32 kts | 194° |
| 2026-05-06 17:10 | 64.72148 | 177.73325 | 150 ft | 19 kts | 195° |
| 2026-05-06 17:11 | 64.72023 | 177.73351 | 150 ft | 17 kts | 167° |
| 2026-05-06 17:11 | 64.71908 | 177.73357 | 148 ft | 17 kts | 156° |
| 2026-05-06 17:11 | 64.71841 | 177.73427 | 147 ft | 10 kts | 155° |
| 2026-05-06 17:11 | 64.71767 | 177.73511 | 146 ft | 13 kts | 152° |
| 2026-05-06 17:12 | 64.71678 | 177.73671 | 143 ft | 18 kts | 140° |
| 2026-05-06 17:12 | 64.71600 | 177.73798 | 138 ft | 15 kts | 173° |
| 2026-05-06 17:12 | 64.71521 | 177.73721 | 136 ft | 12 kts | 201° |
| 2026-05-06 17:12 | 64.71452 | 177.73712 | 133 ft | 4 kts | 177° |
| 2026-05-06 17:13 | 64.71408 | 177.73718 | 131 ft | 0 kts | 176° |